createdAt,value
2022-11-24T00:01:26.975Z,14.08
2022-11-24T00:04:04.889Z,14.02
2022-11-24T00:06:34.995Z,13.98
2022-11-24T00:09:03.924Z,13.96
2022-11-24T00:11:33.634Z,13.95
2022-11-24T00:14:01.670Z,13.94
2022-11-24T00:16:34.677Z,13.92
2022-11-24T00:19:03.975Z,13.87
2022-11-24T00:21:32.191Z,13.84
2022-11-24T00:23:59.985Z,13.82
2022-11-24T00:26:32.292Z,13.83
2022-11-24T00:29:02.030Z,13.83
2022-11-24T00:31:31.624Z,13.86
2022-11-24T00:34:01.450Z,13.82
2022-11-24T00:36:31.426Z,13.81
2022-11-24T00:39:07.927Z,13.75
2022-11-24T00:41:35.194Z,13.73
2022-11-24T00:44:02.391Z,13.74
2022-11-24T00:46:29.943Z,13.73
2022-11-24T00:48:57.843Z,13.69
2022-11-24T00:51:28.188Z,13.68
2022-11-24T00:53:56.632Z,13.67
2022-11-24T00:56:25.114Z,13.64
2022-11-24T00:58:52.478Z,13.63
2022-11-24T01:01:28.848Z,13.61
2022-11-24T01:03:56.820Z,13.57
2022-11-24T01:06:27.208Z,13.54
2022-11-24T01:08:55.045Z,13.48
2022-11-24T01:11:27.978Z,13.38
2022-11-24T01:13:58.421Z,13.32
2022-11-24T01:16:31.759Z,13.32
2022-11-24T01:18:58.987Z,13.31
2022-11-24T01:21:26.077Z,13.34
2022-11-24T01:23:53.613Z,13.35
2022-11-24T01:26:22.657Z,13.34
2022-11-24T01:28:59.207Z,13.33
2022-11-24T01:31:26.950Z,13.29
2022-11-24T01:33:55.012Z,13.35
2022-11-24T01:36:23.103Z,13.37
2022-11-24T01:38:50.613Z,13.36
2022-11-24T01:41:25.751Z,13.32
2022-11-24T01:53:34.680Z,13.32
2022-11-24T01:56:02.853Z,13.33
2022-11-24T01:58:32.767Z,13.31
2022-11-24T02:01:00.337Z,13.33
2022-11-24T02:03:32.742Z,13.32
2022-11-24T02:06:05.048Z,13.31
2022-11-24T02:08:50.691Z,13.38
2022-11-24T02:11:19.122Z,13.38
2022-11-24T02:13:48.256Z,13.33
2022-11-24T02:16:15.470Z,13.30
2022-11-24T02:18:43.610Z,13.29
2022-11-24T02:21:13.955Z,13.25
2022-11-24T02:23:47.136Z,13.20
2022-11-24T02:26:32.626Z,13.24
2022-11-24T02:29:00.251Z,13.24
2022-11-24T02:31:28.044Z,13.21
2022-11-24T02:33:55.896Z,13.20
2022-11-24T02:36:23.134Z,13.23
2022-11-24T02:38:50.275Z,13.31
2022-11-24T02:41:21.019Z,13.33
2022-11-24T02:43:53.394Z,13.27
2022-11-24T02:46:20.693Z,13.25
2022-11-24T02:48:48.160Z,13.32
2022-11-24T02:51:15.390Z,13.32
2022-11-24T02:53:42.573Z,13.29
2022-11-24T02:56:09.769Z,13.29
2022-11-24T02:58:37.232Z,13.25
2022-11-24T03:01:04.806Z,13.18
2022-11-24T03:03:32.299Z,13.14
2022-11-24T03:05:59.516Z,13.13
2022-11-24T03:08:26.788Z,13.18
2022-11-24T03:10:54.817Z,13.22
2022-11-24T03:13:22.073Z,13.20
2022-11-24T03:15:50.854Z,13.15
2022-11-24T03:18:18.131Z,13.13
2022-11-24T03:20:45.233Z,13.11
2022-11-24T03:23:12.966Z,13.08
2022-11-24T03:25:40.257Z,13.12
2022-11-24T03:28:07.429Z,13.16
2022-11-24T03:30:34.505Z,13.13
2022-11-24T03:33:02.694Z,13.13
2022-11-24T03:35:29.738Z,13.08
2022-11-24T03:37:56.797Z,13.08
2022-11-24T03:40:24.811Z,13.13
2022-11-24T03:42:51.876Z,13.18
2022-11-24T03:48:08.222Z,13.15
2022-11-24T03:50:35.288Z,13.14
2022-11-24T03:53:02.834Z,13.16
2022-11-24T03:55:29.950Z,13.13
2022-11-24T03:57:57.262Z,13.11
2022-11-24T04:00:24.487Z,13.11
2022-11-24T04:02:51.710Z,13.04
2022-11-24T04:05:18.897Z,12.97
2022-11-24T04:07:46.159Z,12.96
2022-11-24T04:10:13.510Z,12.95
2022-11-24T04:12:44.368Z,12.94
2022-11-24T04:15:19.874Z,12.96
2022-11-24T04:17:48.272Z,12.90
2022-11-24T04:20:16.311Z,12.88
2022-11-24T04:22:43.864Z,12.93
2022-11-24T04:25:11.680Z,13.03
2022-11-24T04:27:39.459Z,13.07
2022-11-24T04:30:08.722Z,13.03
2022-11-24T04:32:36.639Z,13.05
2022-11-24T04:35:04.791Z,13.06
2022-11-24T04:37:34.515Z,13.11
2022-11-24T04:40:01.711Z,13.08
2022-11-24T04:42:28.792Z,13.08
2022-11-24T04:44:56.028Z,13.08
2022-11-24T04:47:25.308Z,13.07
2022-11-24T04:49:53.505Z,13.04
2022-11-24T04:52:22.815Z,13.09
2022-11-24T04:54:50.218Z,13.10
2022-11-24T04:57:23.895Z,13.08
2022-11-24T04:59:52.861Z,13.08
2022-11-24T05:02:20.351Z,13.10
2022-11-24T05:04:48.225Z,13.09
2022-11-24T05:07:19.003Z,13.06
2022-11-24T05:10:06.304Z,12.97
2022-11-24T05:12:33.821Z,12.91
2022-11-24T05:15:02.751Z,12.93
2022-11-24T05:17:32.115Z,13.02
2022-11-24T05:19:59.771Z,13.12
2022-11-24T05:22:29.634Z,13.12
2022-11-24T05:24:56.833Z,13.11
2022-11-24T05:27:24.230Z,13.03
2022-11-24T05:29:51.339Z,13.06
2022-11-24T05:32:18.436Z,13.03
2022-11-24T05:34:45.802Z,13.04
2022-11-24T05:37:14.346Z,13.03
2022-11-24T05:39:41.509Z,13.01
2022-11-24T05:42:27.709Z,13.03
2022-11-24T05:44:55.019Z,13.04
2022-11-24T05:47:22.403Z,13.07
2022-11-24T05:49:49.777Z,13.17
2022-11-24T05:52:17.446Z,13.20
2022-11-24T05:54:44.675Z,13.20
2022-11-24T05:57:11.791Z,13.27
2022-11-24T05:59:39.156Z,13.36
2022-11-24T06:02:06.337Z,13.41
2022-11-24T06:04:33.679Z,13.46
2022-11-24T06:07:01.000Z,13.49
2022-11-24T06:09:28.308Z,13.60
2022-11-24T06:11:55.411Z,13.66
2022-11-24T06:14:22.664Z,13.74
2022-11-24T06:16:49.830Z,13.87
2022-11-24T06:19:17.162Z,13.98
2022-11-24T06:21:44.297Z,14.14
2022-11-24T06:24:11.501Z,14.19
2022-11-24T06:26:38.624Z,14.24
2022-11-24T06:29:05.924Z,14.37
2022-11-24T06:31:33.148Z,14.47
2022-11-24T06:34:00.984Z,14.54
2022-11-24T06:36:28.401Z,14.68
2022-11-24T06:38:55.668Z,14.75
2022-11-24T06:41:22.868Z,14.83
2022-11-24T06:43:49.911Z,14.91
2022-11-24T06:46:17.249Z,15.00
2022-11-24T06:48:44.308Z,15.01
2022-11-24T06:51:13.316Z,15.11
2022-11-24T06:53:41.067Z,15.16
2022-11-24T06:56:16.118Z,15.30
2022-11-24T06:58:46.244Z,15.41
2022-11-24T07:01:24.939Z,15.52
2022-11-24T07:03:54.130Z,15.62
2022-11-24T07:06:22.716Z,15.71
2022-11-24T07:08:50.651Z,15.81
2022-11-24T07:11:23.299Z,15.88
2022-11-24T07:13:55.117Z,15.95
2022-11-24T07:16:26.941Z,16.03
2022-11-24T07:18:55.030Z,16.15
2022-11-24T07:21:24.217Z,16.37
2022-11-24T07:23:52.972Z,16.46
2022-11-24T07:26:20.982Z,16.47
2022-11-24T07:28:48.211Z,16.50
2022-11-24T07:31:19.181Z,16.54
2022-11-24T07:33:51.387Z,16.58
2022-11-24T07:36:18.982Z,16.63
2022-11-24T07:38:46.172Z,16.69
2022-11-24T07:41:15.835Z,16.74
2022-11-24T07:43:42.913Z,16.79
2022-11-24T07:46:12.943Z,16.87
2022-11-24T07:48:40.340Z,16.94
2022-11-24T07:51:08.527Z,17.00
2022-11-24T07:53:36.698Z,17.08
2022-11-24T07:56:06.420Z,17.13
2022-11-24T07:58:36.209Z,17.19
2022-11-24T08:01:18.111Z,17.24
2022-11-24T08:03:46.544Z,17.37
2022-11-24T08:06:39.374Z,17.34
2022-11-24T08:09:02.457Z,17.46
2022-11-24T08:11:31.659Z,17.55
2022-11-24T08:13:58.988Z,17.68
2022-11-24T08:16:26.390Z,17.83
2022-11-24T08:18:55.675Z,17.83
2022-11-24T08:21:23.667Z,17.85
2022-11-24T08:23:55.226Z,17.85
2022-11-24T08:26:23.220Z,18.06
2022-11-24T08:28:54.823Z,18.07
2022-11-24T08:31:22.811Z,17.89
2022-11-24T08:33:49.909Z,17.93
2022-11-24T08:36:19.360Z,18.12
2022-11-24T08:38:46.752Z,18.32
2022-11-24T08:41:16.266Z,18.49
2022-11-24T08:43:43.936Z,18.42
2022-11-24T08:46:14.694Z,18.54
2022-11-24T08:48:41.888Z,18.60
2022-11-24T08:51:14.819Z,18.38
2022-11-24T08:53:42.683Z,18.34
2022-11-24T08:56:11.154Z,18.30
2022-11-24T08:58:38.875Z,18.25
2022-11-24T09:01:10.521Z,18.15
2022-11-24T09:03:38.531Z,18.02
2022-11-24T09:06:07.426Z,18.09
2022-11-24T09:08:34.880Z,18.09
2022-11-24T09:11:08.131Z,18.24
2022-11-24T09:13:36.063Z,18.48
2022-11-24T09:16:11.806Z,18.45
2022-11-24T09:18:39.749Z,18.43
2022-11-24T09:21:12.865Z,18.37
2022-11-24T09:23:40.755Z,18.61
2022-11-24T09:26:10.516Z,18.84
2022-11-24T09:28:37.995Z,19.19
2022-11-24T09:31:08.008Z,19.49
2022-11-24T09:33:35.826Z,19.74
2022-11-24T09:36:03.384Z,19.87
2022-11-24T09:38:31.595Z,19.82
2022-11-24T09:41:26.286Z,19.27
2022-11-24T09:44:23.844Z,18.92
2022-11-24T09:47:21.003Z,18.79
2022-11-24T09:49:53.508Z,18.76
2022-11-24T09:52:35.159Z,18.73
2022-11-24T09:55:05.210Z,18.79
2022-11-24T09:57:37.643Z,18.86
2022-11-24T10:00:12.869Z,19.04
2022-11-24T10:02:40.040Z,19.16
2022-11-24T10:05:07.875Z,19.14
2022-11-24T10:07:46.863Z,19.34
2022-11-24T10:10:24.509Z,19.39
2022-11-24T10:13:01.705Z,19.50
2022-11-24T10:15:53.810Z,19.67
2022-11-24T10:18:44.799Z,19.84
2022-11-24T10:21:46.947Z,20.11
2022-11-24T10:24:25.612Z,20.47
2022-11-24T10:27:04.300Z,20.64
2022-11-24T10:29:31.409Z,20.91
2022-11-24T10:31:58.557Z,21.03
2022-11-24T10:34:38.886Z,21.25
2022-11-24T10:37:12.113Z,20.89
2022-11-24T10:40:04.273Z,20.78
2022-11-24T10:42:35.542Z,20.45
2022-11-24T10:45:17.791Z,20.63
2022-11-24T10:47:46.040Z,20.71
2022-11-24T10:50:21.262Z,20.39
2022-11-24T10:52:57.372Z,20.47
2022-11-24T10:55:24.841Z,20.51
2022-11-24T10:57:52.182Z,20.54
2022-11-24T11:00:19.277Z,20.76
2022-11-24T11:02:48.871Z,20.72
2022-11-24T11:05:43.772Z,20.86
2022-11-24T11:08:22.493Z,21.44
2022-11-24T11:10:52.563Z,21.62
2022-11-24T11:13:28.900Z,21.98
2022-11-24T11:15:58.346Z,22.18
2022-11-24T11:18:32.213Z,22.00
2022-11-24T11:21:04.665Z,21.59
2022-11-24T11:23:36.141Z,20.96
2022-11-24T11:26:25.057Z,20.83
2022-11-24T11:34:52.965Z,21.15
2022-11-24T11:37:21.758Z,21.44
2022-11-24T11:39:57.237Z,21.49
2022-11-24T11:45:30.593Z,21.26
2022-11-24T11:48:03.373Z,21.25
2022-11-24T11:51:14.682Z,21.06
2022-11-24T11:53:53.505Z,20.83
2022-11-24T11:56:23.557Z,20.37
2022-11-24T11:59:21.236Z,20.10
2022-11-24T12:02:09.732Z,19.98
2022-11-24T12:04:47.014Z,19.99
2022-11-24T12:07:32.159Z,19.91
2022-11-24T12:10:14.298Z,19.67
2022-11-24T12:12:48.206Z,19.51
2022-11-24T12:15:30.176Z,19.39
2022-11-24T12:18:55.072Z,19.26
2022-11-24T12:21:27.776Z,19.37
2022-11-24T12:24:12.674Z,18.95
2022-11-24T12:26:53.556Z,18.80
2022-11-24T12:29:32.927Z,18.80
2022-11-24T12:32:10.801Z,18.98
2022-11-24T12:34:43.837Z,19.16
2022-11-24T12:37:30.767Z,19.11
2022-11-24T12:40:31.676Z,19.22
2022-11-24T12:43:09.838Z,19.52
2022-11-24T12:45:57.642Z,19.64
2022-11-24T12:48:30.795Z,19.96
2022-11-24T12:50:59.373Z,19.85
2022-11-24T12:53:33.567Z,19.74
2022-11-24T12:56:12.614Z,19.41
2022-11-24T12:58:50.439Z,19.26
2022-11-24T13:02:11.282Z,18.86
2022-11-24T13:05:02.833Z,18.58
2022-11-24T13:07:45.531Z,18.41
2022-11-24T13:10:46.542Z,18.37
2022-11-24T13:13:16.710Z,18.56
2022-11-24T13:16:07.088Z,18.81
2022-11-24T13:18:58.887Z,19.09
2022-11-24T13:21:41.737Z,19.18
2022-11-24T13:24:19.213Z,19.23
2022-11-24T13:26:55.775Z,19.17
2022-11-24T13:29:28.977Z,19.36
2022-11-24T13:32:16.005Z,19.32
2022-11-24T13:34:43.132Z,19.04
2022-11-24T13:37:31.407Z,18.94
2022-11-24T13:40:11.676Z,19.05
2022-11-24T13:45:39.872Z,19.03
2022-11-24T13:48:19.830Z,18.99
2022-11-24T13:50:50.375Z,18.79
2022-11-24T13:53:26.400Z,18.85
2022-11-24T13:56:12.155Z,18.81
2022-11-24T13:58:40.654Z,18.90
2022-11-24T14:01:12.659Z,19.01
2022-11-24T14:04:27.934Z,18.82
2022-11-24T14:06:59.003Z,18.64
2022-11-24T14:09:40.900Z,18.59
2022-11-24T14:12:16.374Z,18.49
2022-11-24T14:14:45.913Z,18.52
2022-11-24T14:17:23.288Z,18.55
2022-11-24T14:19:52.974Z,18.58
2022-11-24T14:22:27.059Z,18.54
2022-11-24T14:24:59.921Z,18.60
2022-11-24T14:27:34.470Z,18.63
2022-11-24T14:30:05.353Z,18.59
2022-11-24T14:32:32.726Z,18.44
2022-11-24T14:34:59.943Z,18.39
2022-11-24T14:37:27.283Z,18.26
2022-11-24T14:39:54.453Z,18.27
2022-11-24T14:42:30.171Z,18.21
2022-11-24T14:45:04.031Z,18.29
2022-11-24T14:47:45.058Z,18.32
2022-11-24T14:50:16.251Z,18.32
2022-11-24T14:52:52.832Z,18.36
2022-11-24T14:55:25.756Z,18.43
2022-11-24T14:57:53.020Z,18.39
2022-11-24T15:00:25.620Z,18.38
2022-11-24T15:03:13.801Z,18.44
2022-11-24T15:06:01.266Z,18.43
2022-11-24T15:08:37.785Z,18.43
2022-11-24T15:11:07.142Z,18.48
2022-11-24T15:13:38.219Z,18.45
2022-11-24T15:16:15.000Z,18.37
2022-11-24T15:18:44.474Z,18.38
2022-11-24T15:21:17.469Z,18.40
2022-11-24T15:24:06.084Z,18.44
2022-11-24T15:26:39.976Z,18.39
2022-11-24T15:29:09.484Z,18.36
2022-11-24T15:31:37.114Z,18.31
2022-11-24T15:34:04.340Z,18.21
2022-11-24T15:36:31.507Z,18.07
2022-11-24T15:38:58.969Z,17.93
2022-11-24T15:41:32.257Z,17.86
2022-11-24T15:43:59.737Z,17.82
2022-11-24T15:46:28.788Z,17.84
2022-11-24T15:48:56.328Z,17.79
2022-11-24T15:51:26.541Z,17.78
2022-11-24T15:54:01.097Z,17.75
2022-11-24T15:56:34.711Z,17.69
2022-11-24T15:59:02.560Z,17.70
2022-11-24T16:01:33.143Z,17.64
2022-11-24T16:04:01.240Z,17.59
2022-11-24T16:06:28.409Z,17.61
2022-11-24T16:08:56.212Z,17.59
2022-11-24T16:11:23.434Z,17.58
2022-11-24T16:13:53.218Z,17.55
2022-11-24T16:16:22.084Z,17.51
2022-11-24T16:18:49.366Z,17.50
2022-11-24T16:21:16.809Z,17.51
2022-11-24T16:23:43.959Z,17.53
2022-11-24T16:26:11.238Z,17.56
2022-11-24T16:28:38.274Z,17.53
2022-11-24T16:31:05.412Z,17.54
2022-11-24T16:33:32.671Z,17.49
2022-11-24T16:35:59.913Z,17.48
2022-11-24T16:38:27.076Z,17.54
2022-11-24T16:40:56.607Z,17.56
2022-11-24T16:43:24.764Z,17.47
2022-11-24T16:46:09.635Z,17.62
2022-11-24T16:48:37.308Z,17.62
2022-11-24T16:51:09.112Z,17.66
2022-11-24T16:53:37.428Z,17.66
2022-11-24T16:56:05.159Z,17.66
2022-11-24T16:58:32.354Z,17.54
2022-11-24T17:01:10.933Z,17.60
2022-11-24T17:03:39.147Z,17.54
2022-11-24T17:06:08.066Z,17.58
2022-11-24T17:08:37.852Z,17.44
2022-11-24T17:11:11.640Z,17.46
2022-11-24T17:13:39.459Z,17.49
2022-11-24T17:16:08.756Z,17.44
2022-11-24T17:18:36.476Z,17.32
2022-11-24T17:21:09.132Z,17.26
2022-11-24T17:23:37.294Z,17.22
2022-11-24T17:26:07.247Z,17.15
2022-11-24T17:28:35.778Z,17.03
2022-11-24T17:31:14.549Z,16.99
2022-11-24T17:33:41.981Z,16.97
2022-11-24T17:36:09.311Z,16.91
2022-11-24T17:38:37.149Z,16.92
2022-11-24T17:41:06.292Z,16.89
2022-11-24T17:43:33.836Z,16.88
2022-11-24T17:46:02.821Z,16.83
2022-11-24T17:48:31.385Z,16.75
2022-11-24T17:51:10.286Z,16.64
2022-11-24T17:53:37.838Z,16.55
2022-11-24T17:56:06.234Z,16.51
2022-11-24T17:58:39.726Z,16.50
2022-11-24T18:01:10.585Z,16.47
2022-11-24T18:03:39.640Z,16.44
2022-11-24T18:06:10.691Z,16.36
2022-11-24T18:08:42.008Z,16.29
2022-11-24T18:11:18.352Z,16.26
2022-11-24T18:14:02.081Z,16.25
2022-11-24T18:16:37.309Z,16.21
2022-11-24T18:19:10.865Z,16.13
2022-11-24T18:21:40.440Z,16.03
2022-11-24T18:24:09.233Z,15.98
2022-11-24T18:26:36.523Z,15.95
2022-11-24T18:29:04.881Z,15.92
2022-11-24T18:31:34.489Z,15.86
2022-11-24T18:34:02.609Z,15.81
2022-11-24T18:36:30.750Z,15.81
2022-11-24T18:39:05.440Z,15.80
2022-11-24T18:41:32.821Z,15.83
2022-11-24T18:44:03.312Z,15.83
2022-11-24T18:46:30.747Z,15.79
2022-11-24T18:48:57.942Z,15.79
2022-11-24T18:51:25.518Z,15.80
2022-11-24T18:54:00.185Z,15.82
2022-11-24T18:56:27.803Z,15.78
2022-11-24T18:58:56.552Z,15.82
2022-11-24T19:01:29.243Z,15.82
2022-11-24T19:03:59.634Z,15.82
2022-11-24T19:06:35.333Z,15.87
2022-11-24T19:09:09.332Z,15.82
2022-11-24T19:11:39.105Z,15.81
2022-11-24T19:14:07.830Z,15.82
2022-11-24T19:16:35.438Z,15.80
2022-11-24T19:19:03.231Z,15.75
2022-11-24T19:21:32.617Z,15.71
2022-11-24T19:24:05.027Z,15.72
2022-11-24T19:26:35.345Z,15.73
2022-11-24T19:29:03.508Z,15.80
2022-11-24T19:31:30.785Z,15.81
2022-11-24T19:34:00.006Z,15.73
2022-11-24T19:36:27.157Z,15.66
2022-11-24T19:39:01.967Z,15.63
2022-11-24T19:41:31.361Z,15.68
2022-11-24T19:43:59.567Z,15.66
2022-11-24T19:46:29.752Z,15.61
2022-11-24T19:49:00.338Z,15.62
2022-11-24T19:51:33.251Z,15.64
2022-11-24T19:54:01.437Z,15.66
2022-11-24T19:56:30.996Z,15.67
2022-11-24T19:58:58.312Z,15.69
2022-11-24T20:01:34.086Z,15.77
2022-11-24T20:04:04.397Z,15.75
2022-11-24T20:06:40.399Z,15.69
2022-11-24T20:09:09.959Z,15.70
2022-11-24T20:11:37.828Z,15.74
2022-11-24T20:14:06.251Z,15.67
2022-11-24T20:16:35.338Z,15.65
2022-11-24T20:19:08.782Z,15.60
2022-11-24T20:21:37.874Z,15.54
2022-11-24T20:24:08.301Z,15.46
2022-11-24T20:26:38.288Z,15.39
2022-11-24T20:29:06.380Z,15.37
2022-11-24T20:31:36.228Z,15.39
2022-11-24T20:34:05.515Z,15.39
2022-11-24T20:36:34.328Z,15.40
2022-11-24T20:39:04.302Z,15.45
2022-11-24T20:41:34.511Z,15.44
2022-11-24T20:44:05.403Z,15.38
2022-11-24T20:46:35.351Z,15.31
2022-11-24T20:49:03.903Z,15.27
2022-11-24T20:51:34.204Z,15.27
2022-11-24T20:54:04.815Z,15.32
2022-11-24T20:56:35.406Z,15.34
2022-11-24T20:59:03.943Z,15.27
2022-11-24T21:01:38.865Z,15.20
2022-11-24T21:04:11.527Z,15.22
2022-11-24T21:06:39.465Z,15.17
2022-11-24T21:09:08.080Z,15.12
2022-11-24T21:11:36.148Z,15.11
2022-11-24T21:14:03.735Z,15.07
2022-11-24T21:16:33.547Z,15.01
2022-11-24T21:19:04.013Z,14.96
2022-11-24T21:21:34.731Z,14.89
2022-11-24T21:24:16.147Z,14.88
2022-11-24T21:26:44.718Z,14.82
2022-11-24T21:29:14.133Z,14.76
2022-11-24T21:31:41.801Z,14.72
2022-11-24T21:34:09.174Z,14.69
2022-11-24T21:36:40.273Z,14.67
2022-11-24T21:39:07.679Z,14.65
2022-11-24T21:41:34.885Z,14.70
2022-11-24T21:44:02.202Z,14.65
2022-11-24T21:46:39.055Z,14.60
2022-11-24T21:49:09.678Z,14.55
2022-11-24T21:51:36.918Z,14.47
2022-11-24T21:54:04.155Z,14.38
2022-11-24T21:56:31.447Z,14.33
2022-11-24T21:58:58.885Z,14.31
2022-11-24T22:01:28.478Z,14.30
2022-11-24T22:03:56.431Z,14.31
2022-11-24T22:06:24.007Z,14.26
2022-11-24T22:08:51.191Z,14.24
2022-11-24T22:11:21.955Z,14.27
2022-11-24T22:13:49.950Z,14.27
2022-11-24T22:16:22.495Z,14.23
2022-11-24T22:18:50.062Z,14.16
2022-11-24T22:21:40.266Z,14.14
2022-11-24T22:24:07.914Z,14.10
2022-11-24T22:26:36.085Z,14.05
2022-11-24T22:29:04.079Z,14.07
2022-11-24T22:31:32.935Z,14.10
2022-11-24T22:34:01.227Z,14.08
2022-11-24T22:36:30.290Z,14.04
2022-11-24T22:38:59.730Z,14.06
2022-11-24T22:41:26.949Z,14.07
2022-11-24T22:43:54.090Z,14.03
2022-11-24T22:46:26.841Z,14.00
2022-11-24T22:48:55.382Z,14.06
2022-11-24T22:51:28.868Z,14.03
2022-11-24T22:53:58.652Z,14.03
2022-11-24T22:56:28.116Z,13.97
2022-11-24T22:58:55.308Z,13.96
2022-11-24T23:01:24.640Z,13.93
2022-11-24T23:03:54.738Z,13.87
2022-11-24T23:06:27.349Z,13.86
2022-11-24T23:08:55.090Z,13.82
2022-11-24T23:11:41.618Z,13.80
2022-11-24T23:14:14.324Z,13.75
2022-11-24T23:16:42.230Z,13.69
2022-11-24T23:19:09.855Z,13.66
2022-11-24T23:21:38.695Z,13.59
2022-11-24T23:24:07.376Z,13.63
2022-11-24T23:26:38.365Z,13.63
2022-11-24T23:29:06.300Z,13.59
2022-11-24T23:31:33.637Z,13.56
2022-11-24T23:34:03.424Z,13.50
2022-11-24T23:36:32.060Z,13.50
2022-11-24T23:39:04.635Z,13.47
2022-11-24T23:41:32.199Z,13.52
2022-11-24T23:44:00.297Z,13.55
2022-11-24T23:46:28.228Z,13.48
2022-11-24T23:48:56.375Z,13.43
2022-11-24T23:51:31.727Z,13.42
2022-11-24T23:54:00.111Z,13.36
2022-11-24T23:56:32.648Z,13.35
2022-11-24T23:59:04.109Z,13.31
